createdAt,value
2022-11-27T00:01:30.502Z,25.30
2022-11-27T00:03:57.841Z,25.00
2022-11-27T00:06:28.237Z,22.00
2022-11-27T00:09:00.893Z,24.33
2022-11-27T00:11:30.422Z,22.37
2022-11-27T00:13:57.629Z,23.00
2022-11-27T00:16:26.568Z,25.90
2022-11-27T00:18:53.961Z,22.17
2022-11-27T00:21:28.416Z,22.93
2022-11-27T00:23:57.716Z,24.93
2022-11-27T00:26:25.948Z,23.80
2022-11-27T00:28:52.893Z,21.33
2022-11-27T00:31:40.207Z,22.40
2022-11-27T00:34:08.927Z,22.90
2022-11-27T00:36:36.918Z,21.73
2022-11-27T00:39:04.295Z,21.20
2022-11-27T00:41:31.543Z,22.50
2022-11-27T00:43:58.543Z,20.07
2022-11-27T00:46:29.827Z,19.57
2022-11-27T00:48:58.537Z,23.33
2022-11-27T00:51:26.916Z,18.30
2022-11-27T00:53:54.796Z,15.47
2022-11-27T00:56:32.076Z,16.40
2022-11-27T00:58:59.565Z,15.87
2022-11-27T01:01:31.304Z,18.60
2022-11-27T01:04:00.588Z,20.27
2022-11-27T01:06:29.229Z,18.30
2022-11-27T01:08:57.539Z,18.80
2022-11-27T01:11:32.689Z,18.10
2022-11-27T01:14:07.102Z,18.13
2022-11-27T01:16:35.395Z,19.87
2022-11-27T01:19:03.460Z,18.67
2022-11-27T01:21:34.665Z,20.57
2022-11-27T01:24:03.698Z,20.87
2022-11-27T01:26:31.301Z,18.90
2022-11-27T01:28:59.068Z,17.13
2022-11-27T01:31:31.562Z,19.43
2022-11-27T01:34:14.293Z,19.50
2022-11-27T01:36:41.298Z,16.60
2022-11-27T01:39:08.345Z,17.00
2022-11-27T01:41:39.769Z,18.70
2022-11-27T01:44:24.986Z,17.73
2022-11-27T01:47:02.202Z,19.10
2022-11-27T01:49:28.981Z,18.17
2022-11-27T01:52:28.600Z,18.80
2022-11-27T01:55:36.688Z,14.33
2022-11-27T01:58:14.444Z,15.93
2022-11-27T02:00:41.881Z,17.33
2022-11-27T02:03:09.445Z,16.13
2022-11-27T02:05:36.504Z,18.20
2022-11-27T02:08:10.938Z,14.43
2022-11-27T02:11:04.998Z,15.83
2022-11-27T02:13:45.397Z,17.07
2022-11-27T02:16:22.362Z,19.60
2022-11-27T02:18:57.548Z,16.30
2022-11-27T02:21:41.995Z,15.43
2022-11-27T02:24:51.781Z,12.60
2022-11-27T02:27:34.520Z,15.83
2022-11-27T02:30:03.316Z,15.90
2022-11-27T02:32:39.876Z,13.73
2022-11-27T02:35:52.552Z,16.03
2022-11-27T02:38:38.202Z,13.60
2022-11-27T02:41:07.982Z,13.53
2022-11-27T02:43:45.986Z,13.60
2022-11-27T02:46:14.530Z,13.47
2022-11-27T02:48:50.207Z,13.97
2022-11-27T02:51:23.581Z,12.27
2022-11-27T02:53:57.311Z,12.80
2022-11-27T02:56:28.734Z,14.77
2022-11-27T02:59:00.665Z,13.47
2022-11-27T03:01:32.942Z,13.20
2022-11-27T03:04:02.495Z,11.90
2022-11-27T03:06:40.663Z,12.47
2022-11-27T03:09:14.930Z,12.40
2022-11-27T03:11:42.152Z,12.17
2022-11-27T03:14:11.151Z,13.40
2022-11-27T03:17:27.863Z,12.03
2022-11-27T03:20:26.436Z,9.17
2022-11-27T03:22:54.801Z,11.17
2022-11-27T03:25:23.708Z,11.20
2022-11-27T03:28:00.085Z,12.53
2022-11-27T03:30:27.428Z,9.87
2022-11-27T03:32:55.230Z,9.70
2022-11-27T03:35:26.917Z,9.67
2022-11-27T03:37:54.709Z,10.47
2022-11-27T03:40:29.622Z,10.10
2022-11-27T03:43:09.872Z,10.20
2022-11-27T03:46:01.225Z,7.37
2022-11-27T03:48:43.600Z,8.23
2022-11-27T03:51:30.975Z,10.20
2022-11-27T03:54:36.832Z,8.10
2022-11-27T03:57:25.751Z,7.50
2022-11-27T03:59:54.856Z,7.73
2022-11-27T04:02:34.158Z,7.93
2022-11-27T04:05:01.431Z,8.57
2022-11-27T04:07:28.479Z,7.17
2022-11-27T04:09:55.455Z,9.03
2022-11-27T04:12:22.761Z,7.10
2022-11-27T04:14:49.717Z,6.40
2022-11-27T04:17:16.617Z,6.37
2022-11-27T04:19:43.541Z,6.87
2022-11-27T04:22:10.484Z,6.90
2022-11-27T04:24:37.474Z,6.90
2022-11-27T04:27:04.456Z,9.13
2022-11-27T04:29:31.373Z,7.10
2022-11-27T04:31:58.251Z,6.57
2022-11-27T04:34:25.085Z,6.37
2022-11-27T04:36:51.994Z,8.43
2022-11-27T04:39:18.964Z,7.63
2022-11-27T04:41:46.297Z,7.03
2022-11-27T04:44:13.941Z,6.73
2022-11-27T04:46:40.880Z,8.10
2022-11-27T04:49:09.244Z,5.90
2022-11-27T04:51:36.228Z,5.00
2022-11-27T04:54:03.129Z,5.40
2022-11-27T04:56:30.065Z,6.03
2022-11-27T04:58:57.377Z,5.90
2022-11-27T05:01:24.284Z,7.20
2022-11-27T05:03:51.572Z,8.73
2022-11-27T05:06:18.482Z,6.10
2022-11-27T05:08:45.852Z,6.63
2022-11-27T05:11:16.011Z,8.13
2022-11-27T05:13:44.504Z,5.93
2022-11-27T05:16:11.598Z,8.70
2022-11-27T05:18:38.540Z,7.70
2022-11-27T05:21:08.252Z,9.33
2022-11-27T05:23:35.747Z,9.50
2022-11-27T05:26:03.428Z,8.87
2022-11-27T05:28:30.456Z,7.30
2022-11-27T05:30:57.607Z,7.33
2022-11-27T05:33:24.590Z,6.10
2022-11-27T05:35:51.463Z,9.03
2022-11-27T05:38:18.391Z,6.77
2022-11-27T05:40:45.279Z,6.63
2022-11-27T05:43:12.296Z,7.17
2022-11-27T05:45:39.222Z,6.97
2022-11-27T05:48:06.571Z,6.13
2022-11-27T05:50:33.475Z,7.40
2022-11-27T05:53:00.692Z,11.00
2022-11-27T05:55:27.669Z,8.37
2022-11-27T05:57:54.623Z,8.27
2022-11-27T06:00:21.720Z,9.67
2022-11-27T06:02:48.789Z,9.40
2022-11-27T06:05:15.874Z,11.93
2022-11-27T06:07:42.834Z,8.70
2022-11-27T06:10:10.424Z,8.97
2022-11-27T06:12:37.380Z,10.33
2022-11-27T06:15:04.774Z,7.70
2022-11-27T06:17:31.694Z,7.80
2022-11-27T06:19:58.577Z,6.90
2022-11-27T06:22:25.508Z,7.40
2022-11-27T06:24:52.738Z,7.20
2022-11-27T06:27:19.665Z,9.83
2022-11-27T06:29:46.559Z,7.33
2022-11-27T06:32:13.596Z,8.30
2022-11-27T06:34:40.776Z,13.83
2022-11-27T06:37:12.854Z,14.67
2022-11-27T06:39:40.237Z,11.33
2022-11-27T06:42:07.208Z,9.17
2022-11-27T06:44:34.152Z,8.27
2022-11-27T06:47:01.063Z,9.30
2022-11-27T06:49:28.358Z,10.60
2022-11-27T06:51:55.246Z,8.80
2022-11-27T06:54:22.232Z,8.63
2022-11-27T06:56:52.373Z,12.03
2022-11-27T06:59:19.878Z,18.23
2022-11-27T07:01:47.099Z,21.23
2022-11-27T07:04:15.866Z,18.33
2022-11-27T07:06:43.569Z,17.23
2022-11-27T07:09:10.580Z,21.73
2022-11-27T07:11:39.676Z,19.57
2022-11-27T07:14:07.372Z,17.73
2022-11-27T07:16:36.567Z,20.53
2022-11-27T07:19:07.882Z,19.40
2022-11-27T07:21:38.105Z,15.17
2022-11-27T07:24:05.701Z,20.03
2022-11-27T07:26:32.972Z,18.70
2022-11-27T07:28:59.981Z,20.43
2022-11-27T07:31:30.958Z,20.53
2022-11-27T07:33:58.711Z,18.27
2022-11-27T07:36:29.726Z,17.30
2022-11-27T07:38:58.126Z,18.30
2022-11-27T07:41:29.159Z,18.43
2022-11-27T07:43:59.354Z,18.50
2022-11-27T07:46:26.860Z,18.87
2022-11-27T07:48:53.815Z,19.13
2022-11-27T07:51:22.464Z,21.77
2022-11-27T07:53:51.878Z,17.27
2022-11-27T07:56:19.224Z,15.77
2022-11-27T07:58:46.707Z,14.40
2022-11-27T08:01:17.108Z,18.70
2022-11-27T08:03:44.385Z,17.03
2022-11-27T08:06:23.510Z,23.77
2022-11-27T08:08:51.845Z,17.77
2022-11-27T08:11:26.965Z,18.53
2022-11-27T08:14:05.724Z,16.00
2022-11-27T08:16:34.141Z,19.43
2022-11-27T08:19:01.780Z,19.23
2022-11-27T08:21:30.212Z,19.00
2022-11-27T08:23:58.150Z,17.03
2022-11-27T08:26:27.508Z,14.30
2022-11-27T08:28:55.492Z,16.77
2022-11-27T08:31:23.187Z,18.53
2022-11-27T08:33:50.296Z,20.13
2022-11-27T08:36:18.314Z,21.50
2022-11-27T08:38:46.672Z,22.27
2022-11-27T08:41:13.814Z,21.03
2022-11-27T08:43:40.688Z,21.63
2022-11-27T08:46:08.303Z,18.17
2022-11-27T08:48:36.117Z,15.23
2022-11-27T08:51:13.879Z,17.10
2022-11-27T08:53:41.323Z,16.23
2022-11-27T08:56:14.466Z,17.97
2022-11-27T08:58:41.505Z,15.40
2022-11-27T09:01:23.134Z,18.00
2022-11-27T09:03:50.858Z,17.83
2022-11-27T09:06:21.576Z,17.53
2022-11-27T09:08:49.533Z,18.97
2022-11-27T09:11:19.551Z,16.13
2022-11-27T09:13:47.128Z,14.93
2022-11-27T09:16:18.256Z,18.87
2022-11-27T09:18:47.863Z,15.60
2022-11-27T09:21:17.571Z,18.50
2022-11-27T09:23:44.723Z,16.30
2022-11-27T09:26:16.720Z,16.27
2022-11-27T09:28:44.886Z,15.07
2022-11-27T09:31:15.107Z,17.97
2022-11-27T09:33:43.107Z,20.10
2022-11-27T09:36:22.635Z,16.87
2022-11-27T09:38:50.133Z,13.43
2022-11-27T09:41:19.912Z,16.20
2022-11-27T09:43:57.865Z,13.23
2022-11-27T09:46:39.072Z,12.40
2022-11-27T09:49:14.684Z,13.60
2022-11-27T09:52:09.388Z,14.23
2022-11-27T09:54:52.596Z,18.90
2022-11-27T09:57:28.411Z,15.23
2022-11-27T10:00:01.888Z,14.90
2022-11-27T10:02:32.442Z,12.90
2022-11-27T10:05:20.080Z,17.60
2022-11-27T10:08:30.220Z,16.40
2022-11-27T10:11:29.761Z,26.80
2022-11-27T10:14:18.256Z,15.80
2022-11-27T10:16:55.119Z,15.67
2022-11-27T10:19:55.450Z,13.40
2022-11-27T10:22:50.250Z,14.97
2022-11-27T10:25:46.276Z,16.30
2022-11-27T10:28:42.069Z,14.93
2022-11-27T10:31:50.224Z,14.20
2022-11-27T10:34:42.470Z,15.00
2022-11-27T10:37:38.127Z,14.27
2022-11-27T10:40:28.776Z,14.50
2022-11-27T10:43:14.818Z,31.03
2022-11-27T10:45:45.837Z,27.53
2022-11-27T10:48:14.339Z,17.23
2022-11-27T10:50:42.561Z,13.30
2022-11-27T10:53:30.963Z,16.70
2022-11-27T10:56:16.088Z,14.77
2022-11-27T10:59:21.508Z,13.77
2022-11-27T11:01:53.392Z,13.97
2022-11-27T11:04:37.863Z,14.37
2022-11-27T11:07:29.042Z,13.13
2022-11-27T11:09:56.806Z,13.43
2022-11-27T11:12:24.487Z,14.00
2022-11-27T11:14:57.609Z,13.90
2022-11-27T11:17:35.001Z,14.90
2022-11-27T11:20:30.598Z,12.27
2022-11-27T11:22:57.768Z,15.20
2022-11-27T11:25:24.723Z,16.47
2022-11-27T11:27:52.512Z,14.00
2022-11-27T11:30:26.789Z,15.50
2022-11-27T11:33:02.139Z,13.27
2022-11-27T11:35:34.707Z,13.13
2022-11-27T11:38:05.616Z,16.33
2022-11-27T11:40:35.405Z,15.00
2022-11-27T11:43:28.668Z,14.87
2022-11-27T11:46:07.280Z,13.50
2022-11-27T11:48:35.905Z,12.03
2022-11-27T11:51:18.004Z,14.80
2022-11-27T11:53:54.027Z,18.97
2022-11-27T11:56:44.849Z,16.33
2022-11-27T11:59:33.232Z,11.83
2022-11-27T12:02:49.770Z,16.37
2022-11-27T12:05:37.497Z,12.90
2022-11-27T12:08:29.238Z,14.47
2022-11-27T12:11:21.709Z,12.97
2022-11-27T12:14:16.600Z,12.17
2022-11-27T12:17:14.551Z,15.03
2022-11-27T12:20:27.243Z,12.93
2022-11-27T12:23:37.885Z,12.23
2022-11-27T12:26:36.241Z,13.53
2022-11-27T12:29:24.652Z,13.10
2022-11-27T12:32:33.900Z,12.50
2022-11-27T12:35:32.341Z,13.53
2022-11-27T12:38:32.959Z,15.70
2022-11-27T12:41:34.561Z,13.23
2022-11-27T12:44:02.165Z,12.90
2022-11-27T12:46:48.953Z,12.70
2022-11-27T12:49:46.488Z,12.83
2022-11-27T12:52:21.604Z,14.47
2022-11-27T12:55:00.053Z,13.00
2022-11-27T12:57:40.571Z,13.40
2022-11-27T13:00:21.810Z,14.90
2022-11-27T13:03:15.834Z,13.53
2022-11-27T13:06:15.028Z,11.63
2022-11-27T13:09:04.884Z,12.20
2022-11-27T13:11:37.631Z,14.00
2022-11-27T13:14:12.917Z,12.90
2022-11-27T13:16:46.511Z,11.03
2022-11-27T13:19:34.689Z,12.13
2022-11-27T13:22:06.976Z,11.47
2022-11-27T13:24:34.513Z,10.73
2022-11-27T13:27:20.161Z,11.17
2022-11-27T13:30:01.657Z,12.63
2022-11-27T13:32:40.640Z,9.40
2022-11-27T13:35:40.014Z,10.53
2022-11-27T13:38:23.040Z,11.37
2022-11-27T13:40:53.831Z,10.10
2022-11-27T13:43:51.457Z,11.40
2022-11-27T13:46:25.846Z,12.70
2022-11-27T13:49:03.753Z,14.40
2022-11-27T13:51:34.921Z,12.20
2022-11-27T13:54:23.273Z,11.00
2022-11-27T13:56:52.902Z,10.70
2022-11-27T13:59:23.819Z,12.67
2022-11-27T14:02:09.576Z,11.33
2022-11-27T14:04:55.610Z,13.37
2022-11-27T14:07:24.102Z,10.20
2022-11-27T14:09:56.462Z,12.57
2022-11-27T14:12:31.809Z,14.70
2022-11-27T14:15:16.512Z,11.47
2022-11-27T14:17:47.194Z,13.90
2022-11-27T14:20:17.226Z,13.97
2022-11-27T14:23:09.965Z,11.47
2022-11-27T14:25:36.329Z,11.60
2022-11-27T14:28:26.252Z,13.10
2022-11-27T14:30:58.025Z,11.80
2022-11-27T14:33:31.433Z,12.50
2022-11-27T14:36:04.092Z,13.23
2022-11-27T14:38:34.029Z,12.17
2022-11-27T14:41:17.621Z,11.17
2022-11-27T14:43:44.486Z,11.07
2022-11-27T14:46:22.120Z,13.00
2022-11-27T14:48:55.345Z,10.97
2022-11-27T14:51:30.276Z,13.20
2022-11-27T14:54:04.096Z,10.77
2022-11-27T14:56:37.862Z,13.43
2022-11-27T14:59:06.644Z,12.90
2022-11-27T15:01:36.551Z,10.67
2022-11-27T15:04:41.451Z,10.97
2022-11-27T15:07:18.159Z,10.87
2022-11-27T15:09:52.247Z,9.57
2022-11-27T15:12:33.834Z,11.07
2022-11-27T15:15:07.914Z,24.57
2022-11-27T15:17:38.856Z,13.77
2022-11-27T15:20:29.686Z,11.60
2022-11-27T15:22:59.009Z,12.87
2022-11-27T15:25:43.916Z,9.73
2022-11-27T15:28:43.377Z,11.57
2022-11-27T15:31:28.596Z,11.10
2022-11-27T15:33:58.363Z,12.53
2022-11-27T15:36:25.776Z,12.33
2022-11-27T15:38:53.176Z,11.13
2022-11-27T15:41:28.399Z,15.73
2022-11-27T15:43:56.655Z,12.67
2022-11-27T15:46:30.423Z,12.60
2022-11-27T15:48:57.578Z,11.13
2022-11-27T15:51:24.521Z,12.87
2022-11-27T15:53:51.698Z,12.17
2022-11-27T15:56:19.347Z,13.00
2022-11-27T15:58:46.237Z,11.80
2022-11-27T16:01:13.205Z,13.50
2022-11-27T16:03:40.566Z,13.50
2022-11-27T16:06:09.207Z,16.00
2022-11-27T16:08:36.679Z,13.27
2022-11-27T16:11:13.501Z,16.37
2022-11-27T16:13:40.574Z,14.10
2022-11-27T16:16:08.862Z,13.10
2022-11-27T16:18:36.689Z,13.27
2022-11-27T16:21:09.810Z,14.50
2022-11-27T16:23:38.654Z,13.93
2022-11-27T16:26:06.145Z,13.00
2022-11-27T16:28:33.789Z,15.20
2022-11-27T16:31:03.684Z,12.90
2022-11-27T16:33:32.191Z,13.07
2022-11-27T16:36:16.276Z,11.60
2022-11-27T16:38:44.427Z,12.33
2022-11-27T16:41:17.034Z,12.00
2022-11-27T16:43:53.226Z,11.00
2022-11-27T16:46:25.822Z,13.23
2022-11-27T16:48:54.388Z,9.63
2022-11-27T16:51:23.869Z,9.73
2022-11-27T16:53:56.458Z,10.23
2022-11-27T16:56:26.604Z,12.50
2022-11-27T16:58:59.402Z,12.87
2022-11-27T17:01:35.964Z,11.27
2022-11-27T17:04:09.093Z,13.70
2022-11-27T17:06:38.496Z,11.43
2022-11-27T17:09:08.036Z,11.03
2022-11-27T17:11:37.565Z,10.93
2022-11-27T17:14:07.761Z,12.33
2022-11-27T17:16:39.514Z,10.63
2022-11-27T17:19:06.458Z,11.23
2022-11-27T17:21:35.428Z,13.10
2022-11-27T17:24:13.192Z,13.23
2022-11-27T17:26:44.601Z,12.83
2022-11-27T17:29:14.088Z,14.53
2022-11-27T17:31:41.636Z,14.07
2022-11-27T17:34:13.301Z,11.97
2022-11-27T17:36:42.854Z,11.80
2022-11-27T17:39:15.034Z,14.77
2022-11-27T17:41:45.032Z,14.13
2022-11-27T17:44:13.245Z,11.37
2022-11-27T17:46:40.295Z,12.07
2022-11-27T17:49:08.356Z,20.37
2022-11-27T17:51:36.478Z,60.40
2022-11-27T17:54:05.384Z,37.00
2022-11-27T17:56:34.054Z,17.30
2022-11-27T17:59:01.006Z,12.60
2022-11-27T18:01:30.020Z,12.13
2022-11-27T18:04:00.520Z,11.07
2022-11-27T18:06:27.649Z,12.43
2022-11-27T18:08:56.492Z,12.97
2022-11-27T18:11:26.109Z,15.57
2022-11-27T18:13:53.010Z,12.90
2022-11-27T18:16:24.309Z,11.40
2022-11-27T18:18:52.055Z,13.30
2022-11-27T18:21:20.919Z,12.67
2022-11-27T18:24:21.481Z,13.37
2022-11-27T18:27:07.688Z,12.87
2022-11-27T18:29:24.252Z,10.47
2022-11-27T18:31:52.707Z,14.70
2022-11-27T18:34:19.936Z,11.20
2022-11-27T18:36:46.895Z,11.90
2022-11-27T18:39:14.089Z,12.17
2022-11-27T18:41:41.028Z,12.00
2022-11-27T18:44:07.931Z,10.20
2022-11-27T18:46:34.991Z,10.17
2022-11-27T18:49:02.011Z,10.17
2022-11-27T18:51:29.027Z,11.63
2022-11-27T18:53:56.542Z,10.90
2022-11-27T18:56:32.027Z,10.67
2022-11-27T18:59:04.817Z,12.23
2022-11-27T19:01:41.213Z,12.97
2022-11-27T19:04:11.000Z,13.23
2022-11-27T19:06:39.850Z,14.60
2022-11-27T19:09:07.178Z,13.80
2022-11-27T19:11:35.254Z,14.30
2022-11-27T19:14:02.388Z,13.60
2022-11-27T19:16:34.461Z,11.77
2022-11-27T19:19:03.753Z,25.77
2022-11-27T19:21:33.018Z,21.90
2022-11-27T19:24:02.648Z,14.93
2022-11-27T19:26:35.673Z,13.73
2022-11-27T19:29:08.091Z,12.47
2022-11-27T19:31:38.033Z,11.83
2022-11-27T19:34:06.718Z,13.83
2022-11-27T19:36:35.551Z,12.93
2022-11-27T19:39:07.474Z,12.00
2022-11-27T19:41:35.486Z,11.83
2022-11-27T19:44:06.519Z,10.50
2022-11-27T19:46:36.991Z,10.67
2022-11-27T19:49:17.840Z,11.60
2022-11-27T19:51:45.629Z,11.63
2022-11-27T19:54:13.966Z,11.37
2022-11-27T19:56:42.656Z,10.73
2022-11-27T19:59:12.236Z,12.47
2022-11-27T20:01:40.223Z,12.60
2022-11-27T20:04:10.532Z,11.30
2022-11-27T20:06:37.825Z,14.47
2022-11-27T20:09:05.809Z,12.30
2022-11-27T20:11:35.442Z,14.30
2022-11-27T20:14:04.300Z,12.47
2022-11-27T20:16:32.499Z,14.90
2022-11-27T20:19:01.150Z,11.37
2022-11-27T20:21:28.090Z,12.57
2022-11-27T20:23:55.239Z,12.70
2022-11-27T20:26:25.894Z,11.93
2022-11-27T20:28:53.338Z,13.90
2022-11-27T20:31:33.374Z,10.00
2022-11-27T20:34:03.707Z,10.93
2022-11-27T20:36:33.610Z,12.27
2022-11-27T20:39:01.697Z,14.27
2022-11-27T20:41:29.220Z,13.50
2022-11-27T20:43:59.891Z,12.73
2022-11-27T20:46:28.261Z,13.33
2022-11-27T20:48:55.706Z,11.93
2022-11-27T20:51:28.412Z,12.53
2022-11-27T20:53:57.976Z,13.00
2022-11-27T20:56:25.774Z,13.00
2022-11-27T20:58:52.885Z,13.60
2022-11-27T21:01:41.452Z,11.70
2022-11-27T21:04:24.782Z,13.63
2022-11-27T21:06:52.228Z,14.20
2022-11-27T21:09:20.595Z,14.10
2022-11-27T21:11:47.825Z,13.33
2022-11-27T21:14:16.596Z,22.67
2022-11-27T21:16:48.534Z,19.23
2022-11-27T21:19:24.376Z,16.07
2022-11-27T21:21:53.435Z,14.77
2022-11-27T21:24:27.866Z,12.63
2022-11-27T21:26:55.102Z,14.13
2022-11-27T21:29:25.416Z,13.20
2022-11-27T21:31:53.211Z,15.00
2022-11-27T21:34:20.106Z,13.70
2022-11-27T21:36:47.034Z,13.93
2022-11-27T21:39:20.239Z,16.30
2022-11-27T21:41:50.542Z,12.10
2022-11-27T21:44:18.214Z,11.40
2022-11-27T21:46:49.313Z,14.80
2022-11-27T21:49:19.309Z,15.83
2022-11-27T21:51:46.513Z,14.90
2022-11-27T21:54:15.499Z,16.03
2022-11-27T21:56:42.410Z,15.30
2022-11-27T21:59:13.413Z,14.67
2022-11-27T22:01:40.812Z,14.47
2022-11-27T22:04:07.824Z,14.40
2022-11-27T22:06:41.110Z,18.10
2022-11-27T22:09:14.752Z,17.10
2022-11-27T22:11:42.738Z,14.47
2022-11-27T22:14:09.810Z,17.53
2022-11-27T22:16:44.396Z,15.60
2022-11-27T22:19:12.034Z,14.13
2022-11-27T22:21:38.944Z,15.90
2022-11-27T22:24:06.222Z,12.40
2022-11-27T22:26:33.129Z,14.60
2022-11-27T22:29:00.086Z,13.70
2022-11-27T22:31:30.369Z,14.47
2022-11-27T22:33:57.693Z,14.67
2022-11-27T22:36:34.486Z,16.33
2022-11-27T22:39:05.795Z,14.73
2022-11-27T22:41:36.540Z,17.50
2022-11-27T22:44:19.639Z,14.90
2022-11-27T22:46:47.094Z,14.63
2022-11-27T22:49:16.955Z,16.00
2022-11-27T22:51:44.518Z,13.90
2022-11-27T22:54:14.925Z,13.60
2022-11-27T22:56:41.868Z,14.83
2022-11-27T22:59:32.224Z,14.37
2022-11-27T23:01:56.761Z,15.20
2022-11-27T23:04:23.666Z,12.30
2022-11-27T23:06:50.601Z,15.73
2022-11-27T23:09:18.943Z,17.53
2022-11-27T23:11:46.643Z,13.57
2022-11-27T23:14:14.084Z,15.10
2022-11-27T23:16:41.283Z,14.10
2022-11-27T23:19:08.997Z,13.23
2022-11-27T23:21:37.728Z,15.07
2022-11-27T23:24:06.656Z,16.23
2022-11-27T23:26:34.059Z,14.13
2022-11-27T23:29:01.142Z,13.73
2022-11-27T23:31:32.459Z,15.90
2022-11-27T23:34:01.838Z,16.43
2022-11-27T23:36:30.802Z,15.90
2022-11-27T23:39:03.263Z,14.63
2022-11-27T23:41:30.928Z,15.47
2022-11-27T23:43:58.235Z,16.30
2022-11-27T23:46:28.360Z,14.90
2022-11-27T23:48:57.402Z,17.13
2022-11-27T23:51:28.214Z,18.57
2022-11-27T23:53:55.704Z,14.60
2022-11-27T23:56:31.876Z,16.00
2022-11-27T23:58:59.593Z,14.60
